Time;durP1;ratioP1;P1;durP2;ratioP2;P2;SDS_P1;SDS_P2;PMS_P1;PMS_P2;Temp;Humidity;BMP_temperature;BMP_pressure;BME280_temperature;BME280_humidity;BME280_pressure;Samples;Min_cycle;Max_cycle;Signal;HPM_P1;HPM_P2
2023/05/18 00:00:52;;;;;;;3.72;1.40;;;16.80;65.10;;;;;;4089596;28;20031;-63
2023/05/18 00:03:15;;;;;;;2.72;1.48;;;16.90;64.90;;;;;;4090354;28;20086;-63
2023/05/18 00:05:37;;;;;;;3.33;1.30;;;16.80;65.10;;;;;;4087736;28;20079;-64
2023/05/18 00:08:00;;;;;;;3.50;1.75;;;16.80;65.20;;;;;;4087372;28;20074;-66
2023/05/18 00:10:22;;;;;;;2.40;1.25;;;16.90;65.30;;;;;;4088536;28;20040;-66
2023/05/18 00:12:46;;;;;;;4.07;1.38;;;16.90;65.30;;;;;;4090122;28;20043;-62
2023/05/18 00:15:09;;;;;;;1.55;1.00;;;16.90;65.40;;;;;;4087595;28;20054;-62
2023/05/18 00:17:31;;;;;;;1.17;0.77;;;16.90;65.50;;;;;;4087507;28;20044;-66
2023/05/18 00:19:57;;;;;;;3.00;0.90;;;16.90;65.50;;;;;;4091179;28;20079;-63
2023/05/18 00:22:19;;;;;;;0.88;0.68;;;17.10;65.20;;;;;;4086375;28;20492;-64
2023/05/18 00:24:42;;;;;;;3.97;1.02;;;17.90;62.90;;;;;;4089392;28;20038;-64
2023/05/18 00:27:04;;;;;;;1.70;1.10;;;18.90;60.70;;;;;;4091979;28;20495;-66
2023/05/18 00:29:27;;;;;;;8.18;1.58;;;19.80;58.70;;;;;;4092140;28;20050;-49
2023/05/18 00:31:49;;;;;;;5.38;1.38;;;20.40;57.30;;;;;;4091281;28;20163;-59
2023/05/18 00:34:14;;;;;;;5.97;1.48;;;20.80;56.20;;;;;;4093133;28;20046;-65
2023/05/18 00:36:37;;;;;;;4.65;1.27;;;21.20;55.60;;;;;;4091492;28;20345;-53
2023/05/18 00:39:00;;;;;;;2.37;1.23;;;21.50;54.60;;;;;;4093640;28;20974;-61
2023/05/18 00:41:23;;;;;;;2.58;1.27;;;21.80;53.90;;;;;;4094538;28;20049;-60
2023/05/18 00:43:46;;;;;;;2.53;1.13;;;22.10;53.20;;;;;;4095289;28;20387;-60
2023/05/18 00:46:09;;;;;;;2.00;1.00;;;22.40;52.70;;;;;;4091708;28;20509;-61
2023/05/18 00:48:31;;;;;;;2.35;1.00;;;22.70;52.20;;;;;;4094067;28;20047;-61
2023/05/18 00:50:54;;;;;;;3.97;1.05;;;22.90;51.60;;;;;;4089700;28;20063;-59
2023/05/18 00:53:16;;;;;;;1.65;0.80;;;23.10;51.00;;;;;;4091108;28;20054;-61
2023/05/18 00:55:39;;;;;;;2.47;1.02;;;23.40;50.70;;;;;;4089215;28;20035;-61
2023/05/18 00:58:01;;;;;;;4.22;1.05;;;23.60;50.20;;;;;;4092565;28;20041;-63
2023/05/18 01:00:24;;;;;;;2.15;1.02;;;23.90;49.70;;;;;;4093800;28;20046;-60
2023/05/18 01:02:49;;;;;;;2.67;0.88;;;24.10;49.20;;;;;;4092021;28;20047;-56
2023/05/18 01:05:12;;;;;;;3.88;1.40;;;24.30;48.90;;;;;;4091344;28;20050;-61
2023/05/18 01:07:35;;;;;;;7.05;2.05;;;24.30;48.80;;;;;;4091911;28;20034;-63
2023/05/18 01:09:58;;;;;;;7.30;2.03;;;23.90;49.20;;;;;;4090805;28;20065;-64
2023/05/18 01:12:39;;;;;;;9.25;1.50;;;23.50;49.80;;;;;;4084227;28;20305;-62
2023/05/18 01:15:05;;;;;;;8.50;1.27;;;23.10;50.40;;;;;;4093743;28;20478;-61
2023/05/18 01:17:51;;;;;;;4.63;1.38;;;22.70;51.00;;;;;;4094457;28;20051;-63
2023/05/18 01:20:50;;;;;;;6.80;0.90;;;22.40;51.90;;;;;;4091813;28;20468;-61
2023/05/18 01:23:32;;;;;;;2.63;1.08;;;22.10;52.20;;;;;;4086439;28;20047;-61
2023/05/18 01:25:55;;;;;;;1.65;0.73;;;21.80;52.50;;;;;;4092307;28;20046;-59
2023/05/18 01:28:25;;;;;;;4.13;0.88;;;21.70;52.70;;;;;;4072376;28;20039;-59
2023/05/18 01:30:48;;;;;;;2.47;0.73;;;21.50;52.90;;;;;;4091828;28;20035;-60
2023/05/18 01:33:11;;;;;;;2.88;0.88;;;21.40;53.00;;;;;;4093930;28;20059;-60
2023/05/18 01:35:34;;;;;;;1.25;0.68;;;21.30;53.30;;;;;;4093220;28;20343;-60
2023/05/18 01:37:56;;;;;;;2.95;0.95;;;21.20;53.40;;;;;;4090846;28;20082;-60
2023/05/18 01:40:19;;;;;;;1.80;0.90;;;21.10;53.60;;;;;;4092744;28;20031;-61
2023/05/18 01:42:50;;;;;;;1.45;0.60;;;21.10;53.90;;;;;;4089463;28;20484;-60
2023/05/18 01:45:23;;;;;;;2.28;0.80;;;21.00;54.00;;;;;;4091598;28;20043;-60
2023/05/18 01:47:48;;;;;;;2.08;1.10;;;20.90;54.10;;;;;;4076652;28;20071;-61
2023/05/18 01:50:20;;;;;;;1.75;0.60;;;20.80;54.40;;;;;;4093721;28;20419;-60
2023/05/18 01:52:53;;;;;;;0.57;0.50;;;20.70;54.40;;;;;;4092848;28;20054;-57
2023/05/18 01:55:18;;;;;;;2.22;0.68;;;20.70;54.70;;;;;;4092255;28;20463;-58
2023/05/18 01:57:44;;;;;;;2.22;1.10;;;20.60;54.80;;;;;;4092503;28;20037;-56
2023/05/18 02:00:09;;;;;;;2.67;0.80;;;20.50;55.00;;;;;;4092039;28;20046;-60
2023/05/18 02:02:31;;;;;;;1.80;0.93;;;20.50;55.20;;;;;;4091623;28;20039;-66
2023/05/18 02:04:53;;;;;;;2.15;0.73;;;20.40;55.40;;;;;;4091576;28;20075;-62
2023/05/18 02:07:16;;;;;;;2.03;0.73;;;20.40;55.60;;;;;;4090580;28;20156;-62
2023/05/18 02:09:38;;;;;;;1.98;0.65;;;20.30;55.70;;;;;;4091058;28;20357;-59
2023/05/18 02:12:01;;;;;;;1.20;0.70;;;20.30;56.10;;;;;;4077885;28;20139;-59
2023/05/18 02:14:23;;;;;;;1.08;0.50;;;20.20;56.10;;;;;;4090870;28;20035;-61
2023/05/18 02:16:51;;;;;;;1.85;0.80;;;20.20;56.40;;;;;;4092733;28;20660;-63
2023/05/18 02:19:14;;;;;;;1.33;0.85;;;20.10;56.50;;;;;;4084151;28;20488;-60
2023/05/18 02:21:37;;;;;;;2.13;0.90;;;20.00;56.80;;;;;;4088980;28;20031;-60
2023/05/18 02:23:59;;;;;;;1.55;0.93;;;20.00;57.00;;;;;;4090642;28;20134;-59
2023/05/18 02:26:22;;;;;;;1.20;0.80;;;19.90;57.20;;;;;;4090606;28;20502;-58
2023/05/18 02:28:44;;;;;;;1.58;0.90;;;19.90;57.30;;;;;;4091427;28;20720;-59
2023/05/18 02:31:13;;;;;;;4.75;0.95;;;19.80;57.40;;;;;;4091090;28;20431;-63
2023/05/18 02:33:38;;;;;;;1.77;0.70;;;19.80;57.60;;;;;;4075776;28;20051;-61
2023/05/18 02:36:02;;;;;;;2.97;1.00;;;19.70;57.60;;;;;;4090159;28;20062;-59
2023/05/18 02:38:24;;;;;;;1.67;0.50;;;19.70;57.70;;;;;;4091069;28;20074;-61
2023/05/18 02:40:47;;;;;;;3.70;0.85;;;19.70;57.90;;;;;;4089359;28;20031;-62
2023/05/18 02:43:09;;;;;;;1.45;0.60;;;19.70;58.10;;;;;;4073683;28;20039;-57
2023/05/18 02:45:31;;;;;;;1.15;0.68;;;19.60;58.10;;;;;;4090109;28;20047;-58
2023/05/18 02:47:54;;;;;;;1.80;0.63;;;19.60;58.20;;;;;;4087253;28;20403;-59
2023/05/18 02:50:16;;;;;;;1.45;0.60;;;19.60;58.30;;;;;;4091866;28;20063;-59
2023/05/18 02:52:40;;;;;;;1.75;0.60;;;19.50;58.30;;;;;;4090367;28;20526;-59
2023/05/18 02:55:03;;;;;;;2.63;0.60;;;19.50;58.40;;;;;;4088658;28;20031;-61
2023/05/18 02:57:26;;;;;;;0.77;0.50;;;19.40;58.60;;;;;;4088513;28;20126;-64
2023/05/18 02:59:48;;;;;;;5.53;0.90;;;19.40;58.60;;;;;;4090415;28;20039;-65
2023/05/18 03:02:13;;;;;;;1.30;0.43;;;19.40;58.70;;;;;;4091191;28;20082;-62
2023/05/18 03:04:36;;;;;;;0.93;0.70;;;19.40;58.90;;;;;;4091578;28;20077;-66
2023/05/18 03:07:01;;;;;;;2.58;0.82;;;19.40;58.90;;;;;;4073667;28;20102;-62
2023/05/18 03:09:24;;;;;;;1.30;0.57;;;19.40;58.90;;;;;;4090377;28;20031;-63
2023/05/18 03:11:46;;;;;;;1.23;0.60;;;19.40;59.00;;;;;;4091220;28;20109;-61
2023/05/18 03:14:09;;;;;;;1.45;0.75;;;19.40;59.00;;;;;;4091905;28;20240;-61
2023/05/18 03:16:31;;;;;;;1.42;0.70;;;19.40;59.00;;;;;;4091557;28;20483;-61
2023/05/18 03:18:57;;;;;;;2.50;0.82;;;19.40;59.20;;;;;;4090091;28;20447;-63
2023/05/18 03:21:20;;;;;;;6.50;0.90;;;19.40;59.20;;;;;;4090645;28;20051;-61
2023/05/18 03:23:43;;;;;;;0.97;0.50;;;19.40;59.30;;;;;;4089712;28;20495;-63
2023/05/18 03:26:10;;;;;;;0.90;0.60;;;19.40;59.50;;;;;;4090272;28;20428;-62
2023/05/18 03:28:32;;;;;;;1.83;0.90;;;19.30;59.40;;;;;;4090054;28;20391;-60
2023/05/18 03:30:55;;;;;;;1.77;0.60;;;19.30;59.40;;;;;;4074086;28;20047;-62
2023/05/18 03:33:18;;;;;;;1.60;0.65;;;19.30;59.60;;;;;;4088861;28;20073;-65
2023/05/18 03:35:40;;;;;;;2.50;0.90;;;19.30;59.60;;;;;;4089689;28;20043;-62
2023/05/18 03:38:02;;;;;;;1.92;0.70;;;19.30;59.60;;;;;;4087795;28;20055;-60
2023/05/18 03:40:25;;;;;;;1.95;0.90;;;19.30;59.80;;;;;;4089836;28;20126;-64
2023/05/18 03:42:48;;;;;;;1.67;0.85;;;19.40;59.70;;;;;;4077615;28;20090;-63
2023/05/18 03:45:11;;;;;;;2.08;0.82;;;19.30;59.80;;;;;;4090372;28;20043;-65
2023/05/18 03:47:34;;;;;;;2.83;0.93;;;19.30;59.90;;;;;;4090179;28;20079;-61
2023/05/18 03:49:56;;;;;;;3.97;0.70;;;19.30;59.90;;;;;;4088624;28;20043;-62
2023/05/18 03:52:21;;;;;;;1.45;0.65;;;19.30;60.00;;;;;;4092149;28;20154;-60
2023/05/18 03:54:43;;;;;;;;;;;19.30;60.00;;;;;;4092373;28;20735;-61
2023/05/18 03:57:05;;;;;;;2.58;0.70;;;19.20;60.20;;;;;;4090999;28;20710;-64
2023/05/18 03:59:28;;;;;;;2.70;0.90;;;19.30;60.20;;;;;;4090198;28;20472;-60
2023/05/18 04:01:52;;;;;;;2.75;0.80;;;19.30;60.20;;;;;;4089718;28;20043;-64
2023/05/18 04:04:16;;;;;;;2.13;0.70;;;19.30;60.40;;;;;;4067538;28;20141;-63
2023/05/18 04:06:39;;;;;;;3.00;0.77;;;19.40;60.50;;;;;;4092220;28;20047;-62
2023/05/18 04:09:02;;;;;;;5.20;0.73;;;19.40;60.40;;;;;;4090778;28;20122;-61
2023/05/18 04:11:24;;;;;;;1.58;0.68;;;19.30;60.30;;;;;;4092543;28;20043;-63
2023/05/18 04:13:48;;;;;;;2.35;1.08;;;19.30;60.40;;;;;;4091206;28;20169;-61
2023/05/18 04:16:12;;;;;;;7.32;0.70;;;19.30;60.40;;;;;;4089646;28;20039;-60
2023/05/18 04:18:35;;;;;;;2.25;0.60;;;19.30;60.50;;;;;;4090364;28;20067;-59
2023/05/18 04:20:57;;;;;;;2.47;0.77;;;19.20;60.50;;;;;;4084440;28;20035;-61
2023/05/18 04:23:19;;;;;;;3.50;0.80;;;19.20;60.60;;;;;;4090505;28;20035;-59
2023/05/18 04:25:42;;;;;;;2.20;0.63;;;19.20;61.30;;;;;;4092393;28;20438;-59
2023/05/18 04:28:05;;;;;;;1.85;0.90;;;19.20;60.60;;;;;;4093443;28;20177;-56
2023/05/18 04:30:31;;;;;;;1.70;0.70;;;19.20;60.60;;;;;;4091614;28;20057;-56
2023/05/18 04:32:56;;;;;;;2.72;0.90;;;19.20;60.20;;;;;;4075664;28;20479;-53
2023/05/18 04:35:19;;;;;;;2.28;0.95;;;19.10;59.70;;;;;;4093461;28;20591;-62
2023/05/18 04:37:42;;;;;;;1.67;0.98;;;19.10;59.70;;;;;;4074687;28;20507;-59
2023/05/18 04:40:06;;;;;;;2.28;0.90;;;19.10;60.00;;;;;;4091700;28;20028;-60
2023/05/18 04:42:29;;;;;;;5.88;1.20;;;19.10;60.10;;;;;;4091406;28;20035;-61
2023/05/18 04:44:53;;;;;;;6.43;1.25;;;19.10;60.00;;;;;;4091526;28;20043;-63
2023/05/18 04:47:15;;;;;;;3.03;1.08;;;19.10;60.00;;;;;;4091383;28;20050;-61
2023/05/18 04:49:38;;;;;;;3.70;0.90;;;19.10;59.90;;;;;;4088866;28;20467;-62
2023/05/18 04:52:00;;;;;;;4.20;0.73;;;19.10;59.90;;;;;;4090256;28;20088;-57
2023/05/18 04:54:29;;;;;;;3.25;0.90;;;19.10;59.90;;;;;;4088325;28;20035;-56
2023/05/18 04:56:52;;;;;;;5.60;1.08;;;19.10;59.80;;;;;;4092487;28;20471;-59
2023/05/18 04:59:15;;;;;;;3.50;0.88;;;19.10;60.00;;;;;;4089456;28;20042;-55
2023/05/18 05:01:37;;;;;;;4.93;0.90;;;19.10;60.20;;;;;;4086284;28;20066;-60
2023/05/18 05:04:00;;;;;;;1.77;0.77;;;19.00;60.30;;;;;;4089949;28;20039;-59
2023/05/18 05:06:22;;;;;;;5.13;0.88;;;19.00;60.50;;;;;;4089557;28;20114;-56
2023/05/18 05:08:44;;;;;;;7.03;1.50;;;19.00;60.60;;;;;;4092013;28;20110;-60
2023/05/18 05:11:07;;;;;;;6.90;1.50;;;19.00;61.20;;;;;;4089665;28;20042;-59
2023/05/18 05:13:29;;;;;;;5.65;1.00;;;19.00;61.40;;;;;;4088611;28;20047;-62
2023/05/18 05:15:52;;;;;;;8.50;1.23;;;19.10;61.30;;;;;;4088806;28;20047;-59
2023/05/18 05:18:14;;;;;;;15.85;1.58;;;19.10;61.20;;;;;;4088796;28;20295;-60
2023/05/18 05:20:37;;;;;;;5.80;0.82;;;19.20;61.10;;;;;;4089223;28;20407;-56
2023/05/18 05:22:59;;;;;;;8.18;0.90;;;19.20;60.90;;;;;;4090629;28;20166;-60
2023/05/18 05:25:22;;;;;;;5.75;1.05;;;19.20;60.80;;;;;;4090658;28;20039;-59
2023/05/18 05:27:44;;;;;;;1.75;0.82;;;19.20;60.80;;;;;;4089916;28;20035;-57
2023/05/18 05:30:07;;;;;;;3.65;1.17;;;19.20;60.90;;;;;;4091188;28;20047;-57
2023/05/18 05:32:29;;;;;;;1.67;0.70;;;19.20;60.90;;;;;;4090984;28;20438;-55
2023/05/18 05:34:53;;;;;;;1.92;0.70;;;19.30;60.90;;;;;;4089384;28;20127;-59
2023/05/18 05:37:16;;;;;;;2.42;0.90;;;19.30;61.50;;;;;;4090499;28;20078;-62
2023/05/18 05:39:38;;;;;;;3.10;0.70;;;19.40;60.70;;;;;;4090618;28;20039;-55
2023/05/18 05:42:01;;;;;;;1.70;0.63;;;19.40;60.60;;;;;;4091295;28;20122;-58
2023/05/18 05:44:23;;;;;;;1.88;0.60;;;19.40;60.50;;;;;;4089224;28;20035;-55
2023/05/18 05:46:46;;;;;;;4.85;0.90;;;19.40;60.40;;;;;;4088825;28;20042;-58
2023/05/18 05:49:08;;;;;;;3.13;1.00;;;19.40;60.30;;;;;;4074550;29;20106;-59
2023/05/18 05:51:30;;;;;;;1.02;0.57;;;19.40;60.50;;;;;;4087857;28;20468;-56
2023/05/18 05:53:53;;;;;;;1.55;0.80;;;19.30;60.50;;;;;;4094215;28;20046;-54
2023/05/18 05:56:15;;;;;;;3.92;1.02;;;19.30;60.60;;;;;;4093867;28;20035;-52
2023/05/18 05:58:38;;;;;;;4.72;1.00;;;19.30;61.10;;;;;;4091713;28;20061;-53
2023/05/18 06:01:01;;;;;;;8.05;1.30;;;19.20;61.30;;;;;;4091376;28;20039;-57
2023/05/18 06:03:23;;;;;;;14.70;2.67;;;19.20;61.80;;;;;;4089006;28;20483;-58
2023/05/18 06:05:46;;;;;;;8.48;1.45;;;19.20;62.20;;;;;;4089884;28;20285;-54
2023/05/18 06:08:08;;;;;;;9.63;1.92;;;19.20;62.10;;;;;;4090188;28;20776;-55
2023/05/18 06:10:31;;;;;;;9.20;1.50;;;19.20;62.20;;;;;;4089576;28;20169;-53
2023/05/18 06:12:53;;;;;;;8.35;1.27;;;19.20;62.10;;;;;;4089765;28;20550;-48
2023/05/18 06:15:16;;;;;;;5.72;0.93;;;19.20;62.20;;;;;;4089118;28;20057;-59
2023/05/18 06:19:48;;;;;;;5.30;1.30;;;19.10;62.50;;;;;;4101376;28;20047;-52
2023/05/18 06:22:11;;;;;;;3.30;0.70;;;19.20;62.60;;;;;;4104910;28;20605;-51
2023/05/18 06:24:33;;;;;;;6.45;1.20;;;19.20;62.60;;;;;;4104277;28;20122;-46
2023/05/18 06:26:55;;;;;;;5.95;0.70;;;19.20;62.80;;;;;;4106713;28;20497;-57
2023/05/18 06:29:18;;;;;;;3.53;0.63;;;19.30;63.00;;;;;;4093411;28;20279;-52
2023/05/18 06:31:40;;;;;;;3.88;1.65;;;19.40;63.00;;;;;;4107026;28;20400;-47
2023/05/18 06:34:03;;;;;;;3.47;0.82;;;19.50;62.90;;;;;;4103524;28;20431;-50
2023/05/18 06:36:25;;;;;;;2.17;0.70;;;19.70;62.30;;;;;;4103206;28;20043;-51
2023/05/18 06:38:48;;;;;;;2.97;0.90;;;19.60;62.20;;;;;;4103073;28;20061;-56
2023/05/18 06:41:10;;;;;;;2.58;0.70;;;19.60;62.40;;;;;;4105302;28;20039;-55
2023/05/18 06:43:35;;;;;;;3.20;0.90;;;19.50;62.50;;;;;;4105601;28;20066;-54
2023/05/18 06:45:57;;;;;;;4.35;1.33;;;19.40;62.60;;;;;;4100982;28;20105;-57
2023/05/18 06:48:21;;;;;;;3.10;0.77;;;19.40;62.80;;;;;;4103321;28;20591;-58
2023/05/18 06:50:43;;;;;;;2.35;0.90;;;19.30;62.90;;;;;;4101787;28;20034;-55
2023/05/18 06:53:06;;;;;;;4.07;0.75;;;19.30;63.00;;;;;;4103924;28;20131;-56
2023/05/18 06:55:28;;;;;;;7.63;1.20;;;19.30;63.10;;;;;;4105052;28;20050;-50
2023/05/18 06:57:51;;;;;;;13.38;1.63;;;19.20;63.40;;;;;;4103137;28;20487;-58
2023/05/18 07:00:15;;;;;;;8.90;1.63;;;19.20;63.40;;;;;;4104503;28;20035;-58
2023/05/18 07:02:38;;;;;;;6.53;1.13;;;19.20;63.60;;;;;;4104090;28;20519;-58
2023/05/18 07:05:04;;;;;;;4.43;0.83;;;19.20;63.60;;;;;;4101127;28;20035;-55
2023/05/18 07:07:26;;;;;;;3.33;0.70;;;19.20;63.60;;;;;;4105104;28;20352;-59
2023/05/18 07:09:49;;;;;;;3.17;0.70;;;19.20;63.80;;;;;;4105230;28;20038;-51
2023/05/18 07:12:12;;;;;;;4.45;0.75;;;19.20;64.00;;;;;;4094013;28;20042;-58
2023/05/18 07:14:35;;;;;;;2.38;1.30;;;19.20;64.00;;;;;;4104544;28;20050;-58
2023/05/18 07:16:57;;;;;;;3.88;1.00;;;19.20;64.10;;;;;;4107006;28;20038;-58
2023/05/18 07:19:20;;;;;;;1.92;0.90;;;19.10;64.00;;;;;;4106280;28;20059;-53
2023/05/18 07:21:42;;;;;;;4.43;0.60;;;19.10;64.10;;;;;;4105587;28;20098;-59
2023/05/18 07:24:05;;;;;;;1.65;0.60;;;19.10;64.10;;;;;;4106522;28;20082;-57
2023/05/18 07:26:28;;;;;;;1.60;0.60;;;19.10;64.20;;;;;;4106889;28;20050;-57
2023/05/18 07:28:51;;;;;;;0.75;0.60;;;19.10;64.20;;;;;;4107428;28;20570;-58
2023/05/18 07:31:15;;;;;;;1.95;0.70;;;19.10;64.20;;;;;;4106484;28;20046;-57
2023/05/18 07:33:37;;;;;;;2.00;0.55;;;19.10;64.20;;;;;;4106148;28;20043;-58
2023/05/18 07:36:00;;;;;;;1.50;0.60;;;19.10;64.20;;;;;;4105856;28;20443;-57
2023/05/18 07:38:22;;;;;;;0.98;0.47;;;19.00;64.20;;;;;;4096573;28;20663;-56
2023/05/18 07:40:44;;;;;;;2.15;0.70;;;19.00;64.30;;;;;;4109620;28;20085;-56
2023/05/18 07:43:07;;;;;;;1.40;0.57;;;19.00;64.40;;;;;;4107988;28;20046;-58
2023/05/18 07:45:30;;;;;;;2.10;0.95;;;19.00;64.30;;;;;;4108919;28;20050;-60
2023/05/18 07:47:53;;;;;;;1.45;0.70;;;19.00;64.40;;;;;;4106306;28;20034;-54
2023/05/18 07:50:15;;;;;;;4.10;0.82;;;19.00;64.20;;;;;;4109856;28;20043;-51
2023/05/18 07:52:38;;;;;;;6.28;0.80;;;19.00;64.20;;;;;;4105449;28;20454;-53
2023/05/18 07:55:01;;;;;;;2.58;0.60;;;19.00;64.20;;;;;;4108455;28;20034;-56
2023/05/18 07:57:24;;;;;;;5.85;1.55;;;19.00;64.20;;;;;;4107387;28;20486;-59
2023/05/18 07:59:46;;;;;;;2.97;0.80;;;19.00;64.20;;;;;;4108478;28;20108;-57
2023/05/18 08:02:09;;;;;;;7.35;0.80;;;19.00;64.30;;;;;;4107811;28;20054;-59
2023/05/18 08:04:31;;;;;;;2.67;0.63;;;18.90;64.30;;;;;;4108534;28;20066;-54
2023/05/18 08:06:58;;;;;;;2.95;0.65;;;18.90;64.20;;;;;;4106761;28;20074;-55
2023/05/18 08:09:21;;;;;;;2.80;0.95;;;18.90;64.30;;;;;;4104688;28;20038;-51
2023/05/18 08:11:43;;;;;;;2.40;0.77;;;18.90;64.20;;;;;;4104166;28;20141;-57
2023/05/18 08:14:06;;;;;;;6.45;1.55;;;18.90;64.10;;;;;;4100446;28;20030;-59
2023/05/18 08:16:28;;;;;;;2.50;1.08;;;18.90;64.20;;;;;;4102556;28;20129;-56
2023/05/18 08:18:51;;;;;;;2.63;0.85;;;18.90;64.10;;;;;;4101061;28;20043;-54
2023/05/18 08:21:13;;;;;;;2.15;0.80;;;18.90;64.10;;;;;;4103296;28;20042;-55
2023/05/18 08:23:37;;;;;;;2.72;0.70;;;18.90;64.10;;;;;;4102908;28;20066;-53
2023/05/18 08:26:02;;;;;;;3.72;0.82;;;18.90;64.00;;;;;;4102029;28;20070;-53
2023/05/18 08:28:24;;;;;;;1.10;0.63;;;18.80;64.00;;;;;;4104136;28;20554;-54
2023/05/18 08:30:47;;;;;;;2.65;0.82;;;18.80;64.00;;;;;;4103630;28;20038;-55
2023/05/18 08:33:09;;;;;;;1.10;0.60;;;18.80;64.00;;;;;;4102992;28;20440;-52
2023/05/18 08:35:32;;;;;;;1.52;0.70;;;18.80;64.00;;;;;;4100175;28;20109;-50
2023/05/18 08:37:55;;;;;;;1.80;1.02;;;18.80;63.90;;;;;;4100949;28;20440;-53
2023/05/18 08:40:17;;;;;;;1.83;0.80;;;18.80;63.90;;;;;;4100295;28;20499;-54
2023/05/18 08:42:51;;;;;;;0.95;0.52;;;18.80;63.90;;;;;;4105074;28;20042;-56
2023/05/18 08:45:22;;;;;;;2.60;1.73;;;18.70;63.90;;;;;;4104075;28;20173;-51
2023/05/18 08:47:45;;;;;;;0.57;0.50;;;18.70;63.80;;;;;;4102157;28;20039;-53
2023/05/18 08:50:13;;;;;;;0.93;0.65;;;18.70;63.80;;;;;;4105086;28;20410;-53
2023/05/18 08:52:41;;;;;;;1.95;1.05;;;18.70;63.70;;;;;;4103327;28;20410;-51
2023/05/18 08:55:07;;;;;;;0.55;0.50;;;18.70;63.70;;;;;;4104064;28;20049;-50
2023/05/18 08:57:32;;;;;;;0.95;0.50;;;18.70;63.70;;;;;;4097150;28;20126;-51
2023/05/18 08:59:55;;;;;;;1.92;0.70;;;18.60;63.70;;;;;;4101879;28;20054;-52
2023/05/18 09:02:18;;;;;;;2.45;0.90;;;18.60;63.70;;;;;;4102022;28;20514;-56
2023/05/18 09:04:43;;;;;;;4.40;1.50;;;18.60;63.80;;;;;;4101362;28;20158;-57
2023/05/18 09:07:08;;;;;;;0.65;0.52;;;18.70;64.00;;;;;;4102705;28;20508;-55
2023/05/18 09:09:31;;;;;;;1.42;0.80;;;18.70;63.80;;;;;;4102116;28;20074;-56
2023/05/18 09:11:57;;;;;;;2.03;0.57;;;18.60;63.70;;;;;;4104684;28;20042;-56
2023/05/18 09:14:24;;;;;;;1.75;0.70;;;18.60;63.70;;;;;;4103997;28;20042;-56
2023/05/18 09:16:46;;;;;;;1.17;0.90;;;18.60;63.70;;;;;;4102088;28;20081;-56
2023/05/18 09:19:09;;;;;;;1.38;0.80;;;18.60;63.80;;;;;;4101126;28;20077;-56
2023/05/18 09:21:32;;;;;;;1.05;0.75;;;18.60;63.90;;;;;;4100123;28;20500;-52
2023/05/18 09:23:55;;;;;;;1.88;0.80;;;18.60;63.80;;;;;;4101991;28;20043;-53
2023/05/18 09:26:21;;;;;;;1.00;0.88;;;18.60;63.80;;;;;;4102731;28;20284;-53
2023/05/18 09:28:44;;;;;;;1.90;0.60;;;18.60;63.70;;;;;;4100516;28;20041;-61
2023/05/18 09:31:17;;;;;;;1.58;1.02;;;18.60;63.80;;;;;;4101699;28;20122;-60
2023/05/18 09:33:42;;;;;;;2.08;1.00;;;18.50;63.70;;;;;;4100486;28;20062;-60
2023/05/18 09:36:07;;;;;;;1.55;0.82;;;18.60;63.80;;;;;;4099925;28;20478;-58
2023/05/18 09:38:29;;;;;;;1.70;0.80;;;18.60;63.80;;;;;;4099499;28;20047;-58
2023/05/18 09:40:52;;;;;;;1.00;0.90;;;18.50;63.80;;;;;;4102522;28;20038;-57
2023/05/18 09:43:20;;;;;;;1.85;0.98;;;18.50;63.70;;;;;;4103753;28;20035;-51
2023/05/18 09:45:44;;;;;;;1.25;0.80;;;18.50;63.80;;;;;;4103584;28;20041;-53
2023/05/18 09:48:07;;;;;;;4.32;1.05;;;18.50;64.10;;;;;;4103020;28;20141;-57
2023/05/18 09:50:30;;;;;;;3.25;0.85;;;18.50;64.30;;;;;;4096229;28;20126;-53
2023/05/18 09:52:53;;;;;;;1.00;0.65;;;18.50;64.40;;;;;;4102060;28;20467;-54
2023/05/18 09:55:16;;;;;;;4.90;0.80;;;18.50;64.30;;;;;;4103849;28;20600;-50
2023/05/18 09:57:47;;;;;;;2.67;0.90;;;18.50;64.40;;;;;;4104808;28;20057;-50
2023/05/18 10:00:11;;;;;;;1.73;0.80;;;18.50;64.30;;;;;;4103368;28;20277;-51
2023/05/18 10:02:39;;;;;;;2.85;0.80;;;18.50;64.30;;;;;;4081748;28;20047;-49
2023/05/18 10:05:01;;;;;;;1.45;0.80;;;18.50;64.20;;;;;;4090060;28;20452;-54
2023/05/18 10:07:24;;;;;;;0.85;0.75;;;18.50;64.30;;;;;;4101237;28;20075;-54
2023/05/18 10:09:59;;;;;;;1.63;0.93;;;18.50;64.10;;;;;;4091588;28;20035;-52
2023/05/18 10:12:23;;;;;;;2.42;0.90;;;18.50;64.10;;;;;;4101840;28;20054;-55
2023/05/18 10:14:46;;;;;;;1.23;0.77;;;18.50;64.10;;;;;;4100433;28;20418;-52
2023/05/18 10:17:14;;;;;;;1.00;0.65;;;18.50;64.10;;;;;;4101768;28;20050;-53
2023/05/18 10:19:39;;;;;;;1.15;0.68;;;18.40;64.10;;;;;;4102975;28;20546;-55
2023/05/18 10:22:05;;;;;;;0.88;0.60;;;18.40;64.20;;;;;;4101812;28;20459;-56
2023/05/18 10:24:30;;;;;;;1.00;0.60;;;18.40;64.30;;;;;;4101503;28;20477;-56
2023/05/18 10:26:54;;;;;;;0.90;0.75;;;18.40;64.20;;;;;;4103768;28;20085;-54
2023/05/18 10:29:17;;;;;;;1.00;0.77;;;18.40;64.20;;;;;;4102083;28;20039;-56
2023/05/18 10:31:40;;;;;;;1.17;0.57;;;18.40;64.20;;;;;;4097084;28;20046;-56
2023/05/18 10:34:04;;;;;;;2.57;0.90;;;18.40;64.10;;;;;;4100297;28;20441;-51
2023/05/18 10:36:29;;;;;;;1.63;0.70;;;18.40;64.20;;;;;;4100946;28;20312;-57
2023/05/18 10:38:53;;;;;;;2.58;0.52;;;18.40;64.20;;;;;;4100382;28;20070;-50
2023/05/18 10:41:21;;;;;;;1.13;0.70;;;18.40;64.40;;;;;;4103638;28;20037;-50
2023/05/18 10:43:45;;;;;;;0.93;0.52;;;18.40;64.50;;;;;;4099652;28;20035;-50
2023/05/18 10:46:07;;;;;;;0.55;0.50;;;18.30;64.50;;;;;;4101089;28;20081;-53
2023/05/18 10:48:30;;;;;;;1.45;0.63;;;18.30;64.50;;;;;;4099870;28;20042;-56
2023/05/18 10:50:55;;;;;;;1.58;0.90;;;18.30;64.50;;;;;;4100309;28;20073;-54
2023/05/18 10:53:20;;;;;;;0.80;0.50;;;18.30;64.60;;;;;;4087271;28;20459;-54
2023/05/18 10:55:42;;;;;;;0.98;0.60;;;18.30;64.70;;;;;;4102792;28;20122;-49
2023/05/18 10:58:13;;;;;;;2.70;0.90;;;18.30;64.40;;;;;;4106006;28;20124;-55
2023/05/18 11:00:40;;;;;;;0.57;0.55;;;18.30;64.30;;;;;;4106699;28;20042;-50
2023/05/18 11:03:07;;;;;;;1.38;0.57;;;18.30;64.20;;;;;;4105702;28;20391;-53
2023/05/18 11:05:30;;;;;;;1.55;0.60;;;18.30;64.20;;;;;;4105452;28;20118;-49
2023/05/18 11:08:04;;;;;;;3.00;0.90;;;18.30;64.20;;;;;;4105841;28;20070;-52
2023/05/18 11:10:33;;;;;;;1.65;0.65;;;18.30;64.40;;;;;;4106051;28;20407;-55
2023/05/18 11:12:58;;;;;;;0.70;0.50;;;18.30;64.20;;;;;;4107755;28;20558;-55
2023/05/18 11:15:40;;;;;;;1.10;0.60;;;18.20;64.20;;;;;;4105963;28;20356;-52
2023/05/18 11:18:15;;;;;;;1.05;0.60;;;18.20;64.20;;;;;;4109221;28;20414;-53
2023/05/18 11:20:38;;;;;;;0.80;0.50;;;18.20;64.20;;;;;;4108832;28;20053;-50
2023/05/18 11:23:03;;;;;;;1.05;0.68;;;18.20;64.20;;;;;;4106660;28;20117;-47
2023/05/18 11:25:25;;;;;;;1.98;0.60;;;18.20;64.20;;;;;;4106209;28;20499;-54
2023/05/18 11:27:49;;;;;;;2.17;0.57;;;18.20;64.20;;;;;;4102348;28;20042;-52
2023/05/18 11:30:44;;;;;;;2.03;0.70;;;18.20;64.40;;;;;;4105847;28;20035;-48
2023/05/18 11:33:17;;;;;;;;;;;18.20;64.40;;;;;;4105876;28;20054;-57
2023/05/18 11:36:10;;;;;;;1.15;0.60;;;18.20;64.50;;;;;;4107836;28;19910;-57
2023/05/18 11:39:10;;;;;;;1.60;0.90;;;18.20;64.40;;;;;;4105180;28;20046;-52
2023/05/18 11:41:41;;;;;;;1.48;0.70;;;18.20;64.40;;;;;;4106149;28;20058;-54
2023/05/18 11:44:15;;;;;;;2.35;0.80;;;18.10;64.40;;;;;;4106061;28;20041;-54
2023/05/18 11:46:50;;;;;;;1.83;0.68;;;18.10;64.40;;;;;;4105817;28;20035;-52
2023/05/18 11:49:16;;;;;;;2.10;0.60;;;18.10;64.50;;;;;;4106552;28;20050;-54
2023/05/18 11:52:01;;;;;;;0.90;0.55;;;18.10;64.50;;;;;;4105124;28;20042;-46
2023/05/18 11:54:27;;;;;;;1.10;0.63;;;18.10;64.50;;;;;;4104581;28;20132;-51
2023/05/18 11:56:54;;;;;;;2.65;0.85;;;18.10;64.50;;;;;;4107261;28;20317;-49
2023/05/18 11:59:16;;;;;;;1.77;0.77;;;18.10;64.60;;;;;;4105056;28;20138;-57
2023/05/18 12:01:42;;;;;;;3.90;1.60;;;18.00;64.50;;;;;;4107950;28;20035;-46
2023/05/18 12:04:05;;;;;;;2.58;0.90;;;18.00;65.00;;;;;;4104433;28;20501;-55
2023/05/18 12:06:28;;;;;;;3.70;0.93;;;18.00;64.80;;;;;;4104136;28;20037;-58
2023/05/18 12:08:50;;;;;;;2.33;1.10;;;18.00;64.80;;;;;;4105921;28;20134;-47
2023/05/18 12:11:13;;;;;;;3.53;1.00;;;18.00;64.80;;;;;;4104830;28;20031;-51
2023/05/18 12:13:36;;;;;;;5.18;1.00;;;18.00;64.80;;;;;;4105795;28;20359;-46
2023/05/18 12:16:00;;;;;;;2.60;0.90;;;17.90;64.80;;;;;;4106354;28;20316;-47
2023/05/18 12:18:22;;;;;;;1.92;0.70;;;17.90;64.80;;;;;;4104705;28;20142;-57
2023/05/18 12:20:48;;;;;;;1.25;0.80;;;17.90;64.80;;;;;;4087470;28;20690;-58
2023/05/18 12:23:11;;;;;;;2.10;1.13;;;17.90;64.80;;;;;;4107514;28;20050;-51
2023/05/18 12:25:33;;;;;;;1.65;1.00;;;17.90;64.90;;;;;;4105963;28;20102;-54
2023/05/18 12:27:55;;;;;;;3.25;1.00;;;17.90;65.00;;;;;;4107689;28;20046;-57
2023/05/18 12:30:37;;;;;;;2.88;1.10;;;17.90;64.90;;;;;;4108675;28;20332;-49
2023/05/18 12:33:01;;;;;;;9.63;1.70;;;17.80;65.00;;;;;;4108001;28;20495;-52
2023/05/18 12:35:26;;;;;;;;;;;17.80;65.00;;;;;;4108058;28;20039;-50